Aviation Digital Data Service (ADDS)

Output produced by METARs form (0324 UTC 21 September 2017)
found at http://www.aviationweather.gov/adds/metars/
 
FABL 210300Z 04006KT CAVOK 14/10 Q1025 NOSIG
TAF FABL 202200Z 2100/2124 VRB03KT CAVOK 
     BECMG 2103/2105 02008KT 
     BECMG 2108/2110 35015KT 
     PROB30 
     TEMPO 2111/2120 TSRA FEW060CB 
     BECMG 2118/2120 35007KT TX32/2112Z TN11/2104Z
       
FACT 210300Z 04005KT CAVOK 13/12 Q1009 NOSIG
TAF FACT 202200Z 2100/2206 23005KT CAVOK 
     FM210600 33013KT 9999 FEW020 
     PROB30 
     TEMPO 2109/2112 TS FEW070CB 
     BECMG 2115/2117 BKN020 TX23/2111Z TN10/2106Z
       
FAEL 210300Z 04011KT 9999 FEW024 18/14 Q1019
FAGG 210322Z VRB04KT CAVOK 13/13 Q1010
TAF FAGG 202200Z 2100/2124 03003KT 0400 FG BKN002 
     PROB30 
     TEMPO 2100/2103 1000 BCFG BKN003 
     BECMG 2103/2105 9999 BKN010 
     BECMG 2104/2106 01013KT 
     FM211000 17008KT 9999 SCT070 
     PROB30 
     TEMPO 2112/2115 TS SCT050CB 
     FM212000 23006KT 9999 SCT015 BKN020 TX29/2109Z TN13/2104Z
       
FAHS 210100Z AUTO 17006KT //// // ////// 17/12 Q1026
FAKM 210300Z 01008KT CAVOK 18/05 Q1022
TAF FAKM 210000Z 2103/2112 34008KT CAVOK 
     BECMG 2107/2109 35016KT TX34/2112Z TN14/2104Z
       
FALW 210300Z AUTO 32007KT //// // ////// 15/11 Q1010
FALA 210300Z 06007KT CAVOK 16/11 Q1030 NOSIG
TAF FALA 202200Z 2100/2124 05008KT CAVOK 
     PROB30 
     TEMPO 2104/2106 BKN015 
     FM210800 36006KT CAVOK TX29/2113Z TN15/2103Z
       
FAMM 210300Z 05004KT CAVOK 15/08 Q1027 NOSIG
FAOB 210300Z AUTO 03004KT //// // ////// 13/12 Q1011
FAPN 210300Z AUTO 34003KT //// // ////// 15/09 Q1026
FAPE 210300Z 05015KT CAVOK 16/14 Q1014 NOSIG
TAF FAPE 202200Z 2100/2124 06015KT 9999 OVC023 
     PROB30 
     TEMPO 2103/2105 3000 BR BKN006 
     BECMG 2105/2107 05008KT CAVOK 
     BECMG 2115/2117 24015KT 
     BECMG 2119/2121 23025G35KT BKN006 
     TEMPO 2122/2124 23030G45KT TX26/2112Z TN14/2104Z
       
FASI 210300Z AUTO 04002KT //// // ////// 11/10 Q1032
FAUT 210300Z 09006KT 9999 SCT030 15/12 Q1022
FAUP 210300Z AUTO 01009KT //// // ////// 23/01 Q1016
TAF FAUP 202200Z 2100/2124 01005KT CAVOK 
     BECMG 2107/2109 35015G26KT 
     BECMG 2115/2117 34008KT 
     BECMG 2118/2120 VRB04KT TX38/2112Z TN17/2104Z
       
FAVV 210300Z AUTO /////KT //// // ////// 14/10 Q1027
FAWK 210300Z AUTO 03007KT //// // ////// 22/18 Q1029